createdAt,value
2022-08-01T00:00:57.178Z,12.52
2022-08-01T00:03:25.055Z,12.43
2022-08-01T00:05:52.984Z,11.05
2022-08-01T00:08:20.939Z,10.75
2022-08-01T00:10:48.829Z,11.52
2022-08-01T00:13:18.055Z,11.20
2022-08-01T00:15:51.874Z,10.85
2022-08-01T00:18:22.684Z,11.95
2022-08-01T00:20:50.643Z,12.43
2022-08-01T00:23:18.515Z,11.35
2022-08-01T00:25:46.491Z,11.73
2022-08-01T00:28:14.679Z,13.00
2022-08-01T00:30:43.873Z,12.07
2022-08-01T00:33:12.784Z,11.85
2022-08-01T00:35:41.382Z,11.70
2022-08-01T00:38:09.215Z,12.05
2022-08-01T00:40:37.147Z,10.93
2022-08-01T00:43:05.381Z,10.45
2022-08-01T00:45:33.418Z,10.32
2022-08-01T00:48:02.617Z,10.00
2022-08-01T00:50:30.616Z,10.93
2022-08-01T00:53:00.349Z,10.93
2022-08-01T00:55:29.110Z,10.57
2022-08-01T00:58:03.125Z,10.30
2022-08-01T01:00:53.245Z,9.70
2022-08-01T01:03:58.012Z,9.73
2022-08-01T01:06:24.337Z,8.80
2022-08-01T01:09:04.967Z,8.93
2022-08-01T01:11:42.814Z,9.27
2022-08-01T01:14:15.752Z,8.30
2022-08-01T01:16:46.633Z,7.93
2022-08-01T01:19:22.832Z,7.95
2022-08-01T01:22:12.185Z,7.50
2022-08-01T01:24:47.119Z,7.90
2022-08-01T01:27:23.267Z,8.43
2022-08-01T01:30:00.540Z,7.00
2022-08-01T01:32:35.026Z,7.72
2022-08-01T01:35:08.567Z,7.30
2022-08-01T01:37:40.464Z,7.85
2022-08-01T01:40:11.691Z,7.22
2022-08-01T01:42:41.756Z,8.15
2022-08-01T01:45:11.520Z,7.43
2022-08-01T01:47:40.781Z,7.95
2022-08-01T01:50:11.278Z,8.23
2022-08-01T01:52:41.929Z,7.00
2022-08-01T01:55:11.781Z,7.30
2022-08-01T01:57:42.318Z,7.65
2022-08-01T02:00:13.353Z,8.73
2022-08-01T02:02:43.445Z,7.35
2022-08-01T02:05:14.434Z,7.90
2022-08-01T02:07:43.814Z,8.25
2022-08-01T02:10:13.834Z,8.40
2022-08-01T02:12:46.619Z,7.82
2022-08-01T02:15:17.587Z,7.20
2022-08-01T02:17:49.616Z,7.22
2022-08-01T02:20:18.933Z,7.93
2022-08-01T02:22:52.298Z,7.97
2022-08-01T02:25:24.890Z,8.23
2022-08-01T02:28:01.696Z,7.90
2022-08-01T02:30:36.197Z,8.15
2022-08-01T02:33:09.871Z,8.60
2022-08-01T02:36:30.095Z,8.68
2022-08-01T02:38:38.265Z,7.53
2022-08-01T02:41:10.432Z,7.40
2022-08-01T02:43:40.456Z,7.28
2022-08-01T02:46:13.746Z,8.13
2022-08-01T02:48:44.921Z,7.57
2022-08-01T02:51:14.513Z,7.10
2022-08-01T02:53:44.939Z,7.18
2022-08-01T02:56:15.507Z,7.47
2022-08-01T02:58:45.096Z,7.90
2022-08-01T03:01:17.335Z,8.23
2022-08-01T03:03:48.460Z,8.07
2022-08-01T03:06:17.800Z,8.02
2022-08-01T03:08:47.686Z,7.93
2022-08-01T03:11:17.134Z,8.60
2022-08-01T03:13:46.876Z,8.32
2022-08-01T03:16:18.830Z,8.75
2022-08-01T03:18:48.316Z,8.80
2022-08-01T03:21:16.424Z,8.50
2022-08-01T03:23:45.533Z,8.60
2022-08-01T03:26:14.090Z,9.07
2022-08-01T03:28:44.026Z,8.80
2022-08-01T03:31:14.665Z,8.85
2022-08-01T03:34:10.799Z,7.80
2022-08-01T03:36:46.790Z,7.15
2022-08-01T03:39:20.208Z,8.00
2022-08-01T03:41:57.063Z,8.23
2022-08-01T03:44:28.495Z,8.27
2022-08-01T03:47:03.156Z,7.93
2022-08-01T03:49:35.331Z,7.07
2022-08-01T03:52:06.404Z,7.53
2022-08-01T03:54:37.963Z,7.30
2022-08-01T03:57:07.721Z,7.60
2022-08-01T03:59:38.895Z,7.22
2022-08-01T04:02:08.519Z,7.05
2022-08-01T04:04:38.249Z,7.07
2022-08-01T04:07:07.919Z,7.15
2022-08-01T04:09:36.319Z,6.95
2022-08-01T04:12:11.943Z,8.85
2022-08-01T04:14:40.595Z,8.05
2022-08-01T04:17:08.620Z,9.05
2022-08-01T04:19:38.103Z,9.45
2022-08-01T04:22:07.602Z,10.95
2022-08-01T04:24:38.673Z,10.95
2022-08-01T04:27:11.834Z,17.17
2022-08-01T04:29:40.611Z,15.73
2022-08-01T04:32:14.208Z,16.60
2022-08-01T04:34:48.215Z,18.30
2022-08-01T04:37:18.483Z,17.55
2022-08-01T04:39:51.225Z,18.80
2022-08-01T04:42:25.218Z,17.70
2022-08-01T04:44:59.323Z,19.52
2022-08-01T04:47:28.049Z,18.42
2022-08-01T04:49:57.980Z,18.55
2022-08-01T04:52:35.235Z,16.30
2022-08-01T04:55:03.152Z,16.35
2022-08-01T04:57:32.139Z,15.93
2022-08-01T05:00:00.293Z,16.38
2022-08-01T05:02:30.031Z,16.02
2022-08-01T05:05:00.398Z,16.90
2022-08-01T05:07:28.432Z,15.82
2022-08-01T05:09:56.290Z,13.13
2022-08-01T05:12:24.221Z,11.57
2022-08-01T05:14:52.089Z,10.30
2022-08-01T05:17:20.202Z,9.75
2022-08-01T05:19:48.156Z,9.70
2022-08-01T05:22:17.904Z,10.15
2022-08-01T05:24:47.081Z,9.18
2022-08-01T05:27:17.232Z,9.85
2022-08-01T05:29:47.301Z,10.60
2022-08-01T05:32:15.902Z,8.77
2022-08-01T05:34:44.575Z,8.40
2022-08-01T05:37:12.564Z,9.35
2022-08-01T05:39:41.880Z,9.63
2022-08-01T05:42:09.768Z,9.30
2022-08-01T05:44:37.713Z,9.27
2022-08-01T05:47:05.826Z,9.90
2022-08-01T05:49:33.785Z,12.00
2022-08-01T05:52:03.280Z,11.02
2022-08-01T05:54:31.719Z,11.20
2022-08-01T05:57:02.686Z,11.77
2022-08-01T05:59:31.250Z,11.73
2022-08-01T06:01:59.377Z,10.05
2022-08-01T06:04:27.363Z,10.95
2022-08-01T06:06:55.365Z,8.77
2022-08-01T06:09:23.548Z,8.40
2022-08-01T06:11:51.518Z,9.98
2022-08-01T06:14:20.837Z,8.02
2022-08-01T06:16:48.751Z,8.88
2022-08-01T06:19:16.652Z,7.90
2022-08-01T06:21:44.518Z,7.25
2022-08-01T06:24:12.462Z,8.15
2022-08-01T06:26:40.398Z,7.15
2022-08-01T06:29:09.956Z,6.78
2022-08-01T06:31:39.942Z,6.78
2022-08-01T06:34:08.058Z,7.10
2022-08-01T06:36:36.106Z,6.15
2022-08-01T06:39:04.138Z,6.38
2022-08-01T06:41:32.008Z,6.32
2022-08-01T06:44:03.254Z,6.03
2022-08-01T06:46:32.381Z,6.20
2022-08-01T06:49:01.838Z,6.45
2022-08-01T06:51:30.079Z,6.95
2022-08-01T06:53:58.205Z,6.45
2022-08-01T06:56:26.193Z,6.20
2022-08-01T06:58:54.133Z,5.60
2022-08-01T07:01:22.256Z,5.68
2022-08-01T07:03:54.664Z,6.25
2022-08-01T07:06:26.228Z,6.68
2022-08-01T07:08:55.208Z,6.10
2022-08-01T07:11:23.827Z,6.13
2022-08-01T07:13:52.247Z,5.95
2022-08-01T07:16:20.326Z,5.03
2022-08-01T07:18:48.293Z,6.00
2022-08-01T07:21:38.286Z,4.80
2022-08-01T07:24:12.889Z,5.30
2022-08-01T07:26:53.321Z,4.50
2022-08-01T07:29:25.337Z,4.40
2022-08-01T07:31:55.170Z,4.55
2022-08-01T07:34:25.064Z,4.55
2022-08-01T07:36:53.715Z,4.95
2022-08-01T07:39:23.077Z,4.80
2022-08-01T07:42:06.773Z,3.90
2022-08-01T07:44:36.754Z,4.40
2022-08-01T07:47:05.290Z,3.58
2022-08-01T07:49:37.686Z,4.75
2022-08-01T07:52:08.328Z,4.07
2022-08-01T07:54:37.713Z,4.18
2022-08-01T07:57:06.320Z,4.47
2022-08-01T07:59:34.322Z,4.93
2022-08-01T08:02:02.342Z,4.28
2022-08-01T08:04:30.415Z,4.75
2022-08-01T08:06:58.616Z,5.03
2022-08-01T08:09:26.567Z,5.05
2022-08-01T08:11:55.886Z,5.43
2022-08-01T08:14:32.826Z,5.50
2022-08-01T08:17:01.823Z,5.40
2022-08-01T08:19:37.493Z,4.78
2022-08-01T08:22:08.014Z,5.60
2022-08-01T08:24:36.791Z,5.60
2022-08-01T08:27:16.075Z,5.30
2022-08-01T08:29:45.042Z,5.13
2022-08-01T08:32:14.131Z,4.68
2022-08-01T08:34:42.776Z,4.28
2022-08-01T08:37:11.643Z,3.67
2022-08-01T08:39:41.765Z,3.78
2022-08-01T08:42:12.057Z,3.35
2022-08-01T08:44:43.690Z,4.40
2022-08-01T08:47:20.250Z,3.80
2022-08-01T08:49:50.225Z,3.30
2022-08-01T08:52:21.227Z,3.50
2022-08-01T08:54:50.955Z,3.10
2022-08-01T08:57:21.460Z,2.90
2022-08-01T08:59:52.985Z,2.97
2022-08-01T09:02:21.052Z,3.22
2022-08-01T09:04:51.134Z,3.10
2022-08-01T09:07:19.099Z,2.83
2022-08-01T09:09:49.244Z,3.33
2022-08-01T09:12:18.630Z,2.53
2022-08-01T09:14:47.776Z,2.70
2022-08-01T09:17:17.640Z,2.00
2022-08-01T09:19:48.903Z,2.35
2022-08-01T09:22:19.611Z,1.60
2022-08-01T09:25:00.303Z,1.30
2022-08-01T09:27:28.474Z,2.22
2022-08-01T09:30:00.490Z,1.65
2022-08-01T09:32:35.944Z,1.58
2022-08-01T09:35:31.252Z,1.83
2022-08-01T09:38:17.520Z,1.50
2022-08-01T09:40:49.915Z,1.90
2022-08-01T09:43:20.796Z,1.65
2022-08-01T09:45:50.835Z,1.67
2022-08-01T09:48:28.506Z,1.50
2022-08-01T09:51:04.661Z,1.30
2022-08-01T09:53:50.930Z,1.38
2022-08-01T09:56:20.954Z,1.80
2022-08-01T09:59:00.434Z,1.65
2022-08-01T10:01:37.520Z,1.50
2022-08-01T10:04:11.680Z,1.30
2022-08-01T10:06:41.513Z,1.50
2022-08-01T10:09:10.031Z,1.70
2022-08-01T10:11:40.138Z,2.60
2022-08-01T10:14:09.636Z,1.77
2022-08-01T10:16:38.935Z,2.38
2022-08-01T10:19:14.665Z,1.60
2022-08-01T10:21:58.091Z,2.10
2022-08-01T10:24:33.547Z,2.20
2022-08-01T10:27:08.270Z,2.15
2022-08-01T10:29:58.979Z,2.30
2022-08-01T10:32:31.164Z,2.60
2022-08-01T10:35:06.519Z,2.40
2022-08-01T10:37:35.631Z,2.33
2022-08-01T10:40:35.452Z,2.30
2022-08-01T10:43:04.792Z,2.58
2022-08-01T10:45:34.460Z,2.70
2022-08-01T10:48:11.947Z,2.58
2022-08-01T10:50:48.498Z,2.65
2022-08-01T10:53:23.269Z,1.98
2022-08-01T10:56:02.647Z,2.22
2022-08-01T10:58:39.764Z,2.10
2022-08-01T11:01:25.875Z,2.75
2022-08-01T11:04:15.606Z,1.98
2022-08-01T11:07:08.954Z,2.85
2022-08-01T11:09:47.052Z,2.22
2022-08-01T11:12:24.894Z,2.17
2022-08-01T11:15:30.110Z,2.30
2022-08-01T11:18:04.493Z,2.03
2022-08-01T11:20:39.582Z,1.97
2022-08-01T11:23:21.625Z,2.55
2022-08-01T11:26:29.295Z,2.60
2022-08-01T11:29:23.452Z,2.50
2022-08-01T11:31:53.711Z,2.03
2022-08-01T11:34:22.358Z,2.75
2022-08-01T11:36:59.535Z,2.40
2022-08-01T11:39:30.270Z,2.17
2022-08-01T11:42:20.690Z,2.20
2022-08-01T11:44:52.647Z,2.50
2022-08-01T11:47:40.882Z,2.33
2022-08-01T11:50:32.780Z,2.20
2022-08-01T11:53:02.293Z,2.37
2022-08-01T11:55:32.263Z,2.22
2022-08-01T11:58:04.652Z,1.98
2022-08-01T12:00:33.280Z,2.20
2022-08-01T12:03:04.466Z,2.33
2022-08-01T12:05:36.014Z,2.40
2022-08-01T12:08:06.211Z,2.42
2022-08-01T12:10:47.135Z,2.53
2022-08-01T12:13:19.003Z,2.42
2022-08-01T12:15:49.786Z,2.40
2022-08-01T12:18:20.456Z,2.83
2022-08-01T12:20:57.280Z,2.30
2022-08-01T12:23:25.725Z,2.10
2022-08-01T12:25:55.713Z,2.65
2022-08-01T12:28:23.973Z,2.60
2022-08-01T12:30:52.687Z,2.20
2022-08-01T12:33:23.437Z,2.30
2022-08-01T12:35:53.783Z,2.67
2022-08-01T12:38:24.062Z,2.85
2022-08-01T12:40:53.580Z,2.90
2022-08-01T12:43:29.021Z,2.90
2022-08-01T12:46:00.150Z,2.50
2022-08-01T12:48:29.340Z,3.50
2022-08-01T12:51:01.505Z,2.90
2022-08-01T12:53:40.165Z,2.80
2022-08-01T12:56:10.658Z,2.83
2022-08-01T12:58:40.709Z,4.13
2022-08-01T13:01:11.811Z,3.10
2022-08-01T13:03:40.259Z,3.58
2022-08-01T13:06:18.210Z,3.35
2022-08-01T13:08:47.133Z,3.45
2022-08-01T13:11:18.406Z,2.67
2022-08-01T13:13:50.235Z,3.35
2022-08-01T13:16:34.262Z,2.20
2022-08-01T13:19:07.636Z,2.55
2022-08-01T13:21:52.975Z,2.15
2022-08-01T13:24:28.308Z,1.63
2022-08-01T13:26:59.729Z,1.80
2022-08-01T13:29:34.070Z,1.30
2022-08-01T13:32:29.455Z,1.60
2022-08-01T13:35:07.133Z,1.40
2022-08-01T13:37:37.270Z,1.40
2022-08-01T13:40:08.295Z,1.10
2022-08-01T13:42:36.565Z,0.95
2022-08-01T13:45:14.191Z,0.70
2022-08-01T13:48:03.368Z,0.95
2022-08-01T13:50:31.092Z,0.93
2022-08-01T13:52:59.096Z,0.85
2022-08-01T13:55:31.119Z,0.95
2022-08-01T13:58:02.288Z,1.10
2022-08-01T14:00:31.821Z,0.93
2022-08-01T14:03:00.009Z,0.90
2022-08-01T14:05:28.302Z,0.90
2022-08-01T14:07:56.865Z,1.10
2022-08-01T14:10:25.377Z,0.98
2022-08-01T14:12:56.869Z,0.93
2022-08-01T14:15:38.172Z,0.90
2022-08-01T14:18:10.815Z,1.13
2022-08-01T14:20:40.773Z,1.13
2022-08-01T14:23:09.479Z,1.33
2022-08-01T14:26:03.433Z,1.15
2022-08-01T14:28:29.489Z,0.80
2022-08-01T14:30:58.689Z,0.93
2022-08-01T14:33:29.900Z,0.80
2022-08-01T14:36:06.680Z,0.83
2022-08-01T14:38:46.922Z,1.53
2022-08-01T14:41:15.409Z,1.30
2022-08-01T14:43:44.116Z,1.00
2022-08-01T14:46:13.599Z,0.93
2022-08-01T14:48:43.281Z,1.13
2022-08-01T14:51:11.573Z,1.23
2022-08-01T14:53:41.582Z,1.00
2022-08-01T14:56:15.263Z,1.00
2022-08-01T14:58:43.729Z,1.23
2022-08-01T15:01:12.180Z,1.27
2022-08-01T15:03:40.585Z,1.25
2022-08-01T15:06:12.235Z,1.40
2022-08-01T15:08:40.586Z,1.45
2022-08-01T15:11:10.413Z,1.00
2022-08-01T15:13:42.635Z,1.42
2022-08-01T15:16:11.932Z,1.30
2022-08-01T15:18:40.645Z,1.27
2022-08-01T15:21:17.189Z,1.20
2022-08-01T15:23:53.375Z,1.60
2022-08-01T15:26:21.356Z,1.75
2022-08-01T15:28:49.325Z,1.20
2022-08-01T15:31:17.281Z,1.27
2022-08-01T15:33:46.079Z,1.43
2022-08-01T15:36:15.825Z,0.90
2022-08-01T15:38:44.266Z,0.90
2022-08-01T15:41:12.493Z,1.05
2022-08-01T15:43:44.193Z,0.98
2022-08-01T15:46:13.101Z,1.10
2022-08-01T15:48:41.801Z,1.25
2022-08-01T15:51:09.950Z,1.15
2022-08-01T15:53:40.287Z,1.10
2022-08-01T15:56:08.337Z,1.00
2022-08-01T15:58:36.613Z,1.08
2022-08-01T16:01:04.727Z,1.30
2022-08-01T16:03:32.695Z,1.17
2022-08-01T16:06:01.358Z,1.50
2022-08-01T16:08:29.368Z,1.05
2022-08-01T16:10:58.598Z,1.02
2022-08-01T16:13:26.622Z,1.20
2022-08-01T16:15:54.772Z,1.20
2022-08-01T16:18:23.644Z,1.65
2022-08-01T16:20:51.630Z,1.40
2022-08-01T16:23:20.246Z,1.33
2022-08-01T16:25:48.349Z,1.15
2022-08-01T16:28:18.135Z,1.20
2022-08-01T16:30:48.905Z,1.10
2022-08-01T16:33:45.612Z,0.90
2022-08-01T16:36:17.018Z,1.73
2022-08-01T16:38:45.604Z,1.30
2022-08-01T16:41:20.152Z,1.20
2022-08-01T16:43:53.690Z,1.20
2022-08-01T16:46:23.945Z,1.30
2022-08-01T16:48:51.916Z,1.55
2022-08-01T16:51:20.061Z,1.40
2022-08-01T16:53:47.978Z,1.30
2022-08-01T16:56:16.164Z,1.42
2022-08-01T16:58:44.088Z,1.55
2022-08-01T17:01:59.738Z,1.40
2022-08-01T17:04:03.018Z,1.40
2022-08-01T17:06:31.529Z,1.42
2022-08-01T17:08:59.873Z,1.85
2022-08-01T17:11:28.070Z,1.60
2022-08-01T17:13:56.204Z,1.70
2022-08-01T17:16:25.593Z,1.33
2022-08-01T17:18:54.050Z,1.50
2022-08-01T17:21:22.016Z,1.40
2022-08-01T17:23:50.256Z,1.70
2022-08-01T17:26:18.114Z,1.63
2022-08-01T17:28:46.100Z,1.60
2022-08-01T17:31:13.982Z,1.40
2022-08-01T17:33:46.042Z,2.15
2022-08-01T17:36:17.755Z,1.40
2022-08-01T17:38:45.882Z,1.63
2022-08-01T17:41:14.180Z,1.40
2022-08-01T17:43:42.237Z,1.27
2022-08-01T17:46:10.289Z,1.92
2022-08-01T17:48:38.213Z,1.75
2022-08-01T17:51:07.541Z,1.33
2022-08-01T17:53:35.831Z,1.48
2022-08-01T17:56:05.828Z,1.50
2022-08-01T17:58:51.275Z,2.00
2022-08-01T18:01:21.200Z,1.55
2022-08-01T18:03:49.497Z,1.95
2022-08-01T18:06:23.421Z,1.33
2022-08-01T18:08:55.585Z,1.48
2022-08-01T18:11:27.083Z,1.48
2022-08-01T18:13:56.890Z,1.70
2022-08-01T18:16:27.813Z,1.40
2022-08-01T18:18:56.077Z,1.63
2022-08-01T18:21:25.478Z,1.55
2022-08-01T18:23:53.481Z,2.03
2022-08-01T18:26:21.677Z,1.63
2022-08-01T18:28:49.931Z,1.98
2022-08-01T18:31:20.422Z,2.20
2022-08-01T18:33:49.709Z,1.92
2022-08-01T18:36:32.846Z,1.60
2022-08-01T18:39:07.102Z,1.95
2022-08-01T18:41:39.093Z,1.60
2022-08-01T18:44:09.027Z,2.13
2022-08-01T18:46:38.847Z,1.40
2022-08-01T18:49:07.986Z,1.80
2022-08-01T18:51:42.967Z,1.60
2022-08-01T18:54:13.390Z,2.10
2022-08-01T18:56:42.199Z,2.10
2022-08-01T18:59:10.397Z,1.60
2022-08-01T19:01:39.833Z,2.20
2022-08-01T19:04:08.253Z,2.25
2022-08-01T19:06:36.573Z,1.90
2022-08-01T19:09:05.142Z,2.03
2022-08-01T19:11:35.391Z,1.88
2022-08-01T19:14:04.308Z,2.08
2022-08-01T19:16:32.529Z,1.90
2022-08-01T19:19:01.810Z,2.50
2022-08-01T19:21:33.040Z,1.77
2022-08-01T19:24:22.729Z,2.20
2022-08-01T19:26:55.470Z,2.15
2022-08-01T19:29:35.060Z,1.90
2022-08-01T19:32:06.807Z,2.13
2022-08-01T19:34:37.510Z,1.75
2022-08-01T19:37:05.816Z,1.98
2022-08-01T19:39:33.979Z,2.15
2022-08-01T19:42:04.156Z,2.20
2022-08-01T19:44:32.822Z,2.10
2022-08-01T19:47:01.870Z,2.72
2022-08-01T19:49:29.749Z,2.10
2022-08-01T19:52:02.381Z,2.30
2022-08-01T19:54:34.091Z,2.17
2022-08-01T19:57:05.913Z,2.10
2022-08-01T19:59:36.895Z,2.70
2022-08-01T20:02:05.656Z,2.00
2022-08-01T20:04:34.699Z,2.50
2022-08-01T20:07:04.544Z,2.22
2022-08-01T20:09:33.514Z,2.53
2022-08-01T20:12:02.984Z,2.22
2022-08-01T20:14:30.862Z,2.70
2022-08-01T20:16:58.759Z,2.42
2022-08-01T20:19:27.397Z,2.40
2022-08-01T20:22:02.778Z,2.65
2022-08-01T20:24:40.973Z,2.20
2022-08-01T20:27:13.050Z,2.90
2022-08-01T20:29:41.998Z,2.35
2022-08-01T20:32:10.273Z,2.40
2022-08-01T20:34:40.267Z,3.13
2022-08-01T20:37:12.852Z,3.00
2022-08-01T20:39:43.827Z,2.67
2022-08-01T20:42:13.858Z,2.67
2022-08-01T20:44:42.822Z,3.50
2022-08-01T20:47:11.463Z,2.85
2022-08-01T20:49:39.630Z,3.05
2022-08-01T20:52:11.726Z,3.40
2022-08-01T20:54:41.537Z,3.00
2022-08-01T20:57:16.983Z,3.17
2022-08-01T20:59:55.977Z,3.05
2022-08-01T21:02:37.430Z,2.60
2022-08-01T21:05:07.447Z,3.58
2022-08-01T21:07:39.735Z,3.40
2022-08-01T21:10:10.026Z,2.92
2022-08-01T21:12:51.252Z,2.83
2022-08-01T21:15:28.178Z,2.60
2022-08-01T21:18:02.556Z,2.67
2022-08-01T21:20:33.274Z,2.92
2022-08-01T21:23:11.218Z,3.35
2022-08-01T21:25:39.171Z,2.45
2022-08-01T21:28:08.527Z,3.00
2022-08-01T21:30:37.420Z,2.50
2022-08-01T21:33:12.060Z,2.60
2022-08-01T21:35:41.765Z,2.90
2022-08-01T21:38:10.580Z,3.10
2022-08-01T21:40:38.844Z,3.30
2022-08-01T21:43:09.480Z,2.88
2022-08-01T21:45:39.294Z,2.50
2022-08-01T21:48:26.883Z,2.63
2022-08-01T21:50:59.299Z,2.75
2022-08-01T21:53:38.795Z,2.78
2022-08-01T21:56:22.422Z,2.47
2022-08-01T21:58:57.382Z,2.80
2022-08-01T22:01:33.688Z,2.65
2022-08-01T22:04:28.258Z,2.78
2022-08-01T22:06:58.146Z,2.15
2022-08-01T22:09:29.829Z,2.60
2022-08-01T22:12:09.036Z,2.60
2022-08-01T22:14:41.571Z,2.22
2022-08-01T22:17:12.723Z,3.00
2022-08-01T22:19:45.651Z,2.70
2022-08-01T22:22:44.537Z,2.90
2022-08-01T22:25:03.236Z,2.95
2022-08-01T22:28:05.700Z,2.80
2022-08-01T22:30:21.796Z,2.78
2022-08-01T22:33:07.365Z,2.80
2022-08-01T22:35:40.113Z,3.00
2022-08-01T22:38:09.724Z,2.47
2022-08-01T22:40:44.662Z,2.50
2022-08-01T22:43:19.402Z,3.10
2022-08-01T22:45:57.170Z,3.05
2022-08-01T22:48:32.776Z,3.22
2022-08-01T22:51:07.747Z,3.20
2022-08-01T22:53:43.734Z,3.10
2022-08-01T22:56:12.854Z,3.10
2022-08-01T22:58:42.266Z,3.08
2022-08-01T23:01:20.990Z,2.90
2022-08-01T23:03:51.891Z,3.28
2022-08-01T23:06:25.055Z,2.97
2022-08-01T23:08:56.653Z,2.40
2022-08-01T23:11:25.304Z,3.38
2022-08-01T23:13:53.619Z,3.05
2022-08-01T23:16:23.040Z,3.30
2022-08-01T23:18:55.065Z,2.95
2022-08-01T23:21:23.980Z,2.60
2022-08-01T23:23:52.307Z,2.97
2022-08-01T23:26:21.046Z,3.22
2022-08-01T23:28:49.481Z,2.85
2022-08-01T23:31:18.249Z,3.05
2022-08-01T23:33:48.088Z,2.78
2022-08-01T23:36:17.531Z,3.20
2022-08-01T23:38:45.879Z,2.40
2022-08-01T23:41:15.855Z,2.70
2022-08-01T23:43:52.346Z,2.63
2022-08-01T23:46:20.617Z,2.95
2022-08-01T23:48:49.835Z,3.05
2022-08-01T23:51:24.776Z,2.78
2022-08-01T23:53:53.332Z,3.05
2022-08-01T23:56:25.101Z,3.50
2022-08-01T23:58:53.606Z,2.42
